Time;durP1;ratioP1;P1;durP2;ratioP2;P2;SDS_P1;SDS_P2;PMS_P1;PMS_P2;Temp;Humidity;BMP_temperature;BMP_pressure;BME280_temperature;BME280_humidity;BME280_pressure;Samples;Min_cycle;Max_cycle;Signal;HPM_P1;HPM_P2
2022/09/28 00:01:48;;;;;;;2.15;0.85;;;7.70;99.90;;;;;;4994445;28;20026;-75
2022/09/28 00:04:14;;;;;;;2.95;0.35;;;7.60;99.90;;;;;;4993282;28;20157;-75
2022/09/28 00:06:39;;;;;;;1.17;0.38;;;7.50;99.90;;;;;;4977352;28;20117;-75
2022/09/28 00:09:05;;;;;;;1.05;0.30;;;7.50;99.90;;;;;;4994229;28;20042;-75
2022/09/28 00:11:32;;;;;;;4.47;0.30;;;7.40;99.90;;;;;;4976906;28;20027;-75
2022/09/28 00:14:02;;;;;;;1.73;0.40;;;7.30;99.90;;;;;;4977033;28;20117;-76
2022/09/28 00:16:33;;;;;;;2.88;0.50;;;7.30;99.90;;;;;;4994356;28;20034;-75
2022/09/28 00:19:00;;;;;;;3.72;0.40;;;7.20;99.90;;;;;;4993093;28;20033;-75
2022/09/28 00:21:28;;;;;;;0.77;0.47;;;7.10;99.90;;;;;;4993153;28;20092;-76
2022/09/28 00:24:11;;;;;;;1.73;0.40;;;7.10;99.90;;;;;;4994821;28;20031;-75
2022/09/28 00:26:55;;;;;;;0.98;0.50;;;7.10;99.90;;;;;;4994740;28;20131;-75
2022/09/28 00:29:26;;;;;;;1.92;0.50;;;7.00;99.90;;;;;;4993855;28;20034;-76
2022/09/28 00:31:59;;;;;;;1.95;0.45;;;7.00;99.90;;;;;;4993355;28;20422;-76
2022/09/28 00:34:26;;;;;;;2.40;0.90;;;7.00;99.90;;;;;;4994229;28;20450;-76
2022/09/28 00:36:51;;;;;;;7.47;1.88;;;6.90;99.90;;;;;;4994878;28;20023;-76
2022/09/28 00:39:17;;;;;;;4.78;0.63;;;6.90;99.90;;;;;;4994397;28;20027;-77
2022/09/28 00:41:44;;;;;;;2.42;0.57;;;6.90;99.90;;;;;;4993905;28;20030;-76
2022/09/28 00:44:38;;;;;;;1.90;0.50;;;6.80;99.90;;;;;;4993770;28;20048;-76
2022/09/28 00:47:18;;;;;;;1.50;0.50;;;6.80;99.90;;;;;;4993227;28;20113;-78
2022/09/28 00:49:50;;;;;;;2.70;0.47;;;6.70;99.90;;;;;;4981586;28;20046;-77
2022/09/28 00:52:39;;;;;;;0.50;0.40;;;6.70;99.90;;;;;;4997771;28;20463;-76
2022/09/28 00:55:09;;;;;;;2.38;0.55;;;6.60;99.90;;;;;;4950696;28;20080;-76
2022/09/28 00:57:36;;;;;;;2.15;0.60;;;6.60;99.90;;;;;;4997865;28;20466;-76
2022/09/28 01:00:04;;;;;;;2.50;0.80;;;6.50;99.90;;;;;;5001444;28;20146;-76
2022/09/28 01:02:30;;;;;;;0.63;0.63;;;6.50;99.90;;;;;;5001608;28;20417;-76
2022/09/28 01:04:58;;;;;;;0.75;0.70;;;6.50;99.90;;;;;;4999922;28;20053;-76
2022/09/28 01:07:24;;;;;;;2.50;0.60;;;6.50;99.90;;;;;;5000540;28;20022;-76
2022/09/28 01:09:50;;;;;;;1.65;0.70;;;6.40;99.90;;;;;;4983282;28;20442;-76
2022/09/28 01:12:16;;;;;;;1.33;0.70;;;6.40;99.90;;;;;;5000034;28;20114;-76
2022/09/28 01:14:42;;;;;;;0.88;0.60;;;6.40;99.90;;;;;;5001082;28;20451;-76
2022/09/28 01:17:13;;;;;;;0.70;0.50;;;6.40;99.90;;;;;;4998678;28;20394;-76
2022/09/28 01:20:16;;;;;;;0.68;0.30;;;6.40;99.90;;;;;;4999197;28;20351;-76
2022/09/28 01:23:12;;;;;;;0.45;0.40;;;6.30;99.90;;;;;;4981256;28;20030;-76
2022/09/28 01:26:11;;;;;;;0.40;0.32;;;6.40;99.90;;;;;;4968925;28;20062;-77
2022/09/28 01:28:38;;;;;;;2.45;0.60;;;6.30;99.90;;;;;;4981322;28;20034;-76
2022/09/28 01:31:14;;;;;;;0.77;0.40;;;6.40;99.90;;;;;;4997275;28;20046;-76
2022/09/28 01:33:57;;;;;;;1.73;0.65;;;6.40;99.90;;;;;;4997758;28;20022;-76
2022/09/28 01:36:52;;;;;;;2.78;0.40;;;6.30;99.90;;;;;;4997655;28;20030;-76
2022/09/28 01:39:38;;;;;;;1.92;0.50;;;6.20;99.90;;;;;;4996838;28;20476;-76
2022/09/28 01:42:09;;;;;;;0.47;0.35;;;6.20;99.90;;;;;;4997569;28;20033;-76
2022/09/28 01:44:39;;;;;;;0.82;0.50;;;6.10;99.90;;;;;;4998648;28;20039;-76
2022/09/28 01:47:09;;;;;;;3.15;0.60;;;6.10;99.90;;;;;;4997104;28;20113;-76
2022/09/28 01:49:44;;;;;;;1.48;0.55;;;6.00;99.90;;;;;;4998173;28;20042;-76
2022/09/28 01:52:44;;;;;;;2.08;0.77;;;6.00;99.90;;;;;;4998700;28;20379;-76
2022/09/28 01:55:32;;;;;;;0.77;0.40;;;5.90;99.90;;;;;;4967928;28;20124;-77
2022/09/28 01:58:10;;;;;;;2.83;0.52;;;5.90;99.90;;;;;;4996659;28;20026;-77
2022/09/28 02:00:40;;;;;;;9.55;1.52;;;5.80;99.90;;;;;;4997088;28;20046;-76
2022/09/28 02:03:15;;;;;;;2.30;0.50;;;5.80;99.90;;;;;;4995050;28;20030;-77
2022/09/28 02:05:50;;;;;;;2.15;0.60;;;5.80;99.90;;;;;;4996754;28;20018;-76
2022/09/28 02:08:30;;;;;;;2.63;0.50;;;5.80;99.90;;;;;;4996803;28;20463;-77
2022/09/28 02:11:11;;;;;;;2.53;0.47;;;5.70;99.90;;;;;;4996984;28;20500;-76
2022/09/28 02:13:52;;;;;;;1.15;0.60;;;5.70;99.90;;;;;;4996710;28;20026;-76
2022/09/28 02:16:23;;;;;;;3.72;0.43;;;5.80;99.90;;;;;;4995899;28;20029;-77
2022/09/28 02:18:50;;;;;;;0.50;0.35;;;5.80;99.90;;;;;;4996662;28;20057;-76
2022/09/28 02:21:22;;;;;;;2.65;0.63;;;5.90;99.90;;;;;;4995178;28;20100;-77
2022/09/28 02:24:02;;;;;;;1.08;0.55;;;5.90;99.90;;;;;;4979552;28;20363;-77
2022/09/28 02:26:35;;;;;;;5.55;0.90;;;5.90;99.90;;;;;;4994577;28;20050;-76
2022/09/28 02:29:01;;;;;;;1.17;0.82;;;6.00;99.90;;;;;;4995402;28;20042;-76
2022/09/28 02:31:27;;;;;;;3.28;0.70;;;6.00;99.90;;;;;;4995937;28;20114;-76
2022/09/28 02:33:55;;;;;;;2.35;0.82;;;6.20;99.90;;;;;;4995059;28;20045;-76
2022/09/28 02:36:21;;;;;;;2.63;0.60;;;6.10;99.90;;;;;;4996546;28;20034;-76
2022/09/28 02:38:47;;;;;;;3.20;0.98;;;6.20;99.90;;;;;;4996621;28;20054;-76
2022/09/28 02:41:47;;;;;;;2.72;0.75;;;6.20;99.90;;;;;;4995584;28;20034;-76
2022/09/28 02:44:40;;;;;;;1.67;0.50;;;6.40;99.90;;;;;;4995569;28;20112;-77
2022/09/28 02:47:25;;;;;;;4.47;0.60;;;6.40;99.90;;;;;;4978063;28;20026;-77
2022/09/28 02:50:17;;;;;;;1.90;0.50;;;6.40;99.90;;;;;;4978287;28;20034;-76
2022/09/28 02:52:57;;;;;;;0.85;0.60;;;6.40;99.90;;;;;;4995985;28;20374;-77
2022/09/28 02:56:07;;;;;;;1.27;0.40;;;6.40;99.90;;;;;;4978857;28;20034;-76
2022/09/28 02:58:36;;;;;;;1.50;0.70;;;6.40;99.90;;;;;;4935730;28;20053;-76
2022/09/28 03:01:26;;;;;;;1.30;0.90;;;6.40;99.90;;;;;;4995475;28;20037;-76
2022/09/28 03:03:58;;;;;;;0.82;0.50;;;6.40;99.90;;;;;;4995499;28;20097;-77
2022/09/28 03:06:38;;;;;;;1.35;0.60;;;6.40;99.90;;;;;;4995820;28;20054;-76
2022/09/28 03:09:32;;;;;;;3.50;1.00;;;6.30;99.90;;;;;;4995629;28;20140;-76
2022/09/28 03:12:05;;;;;;;1.83;0.70;;;6.30;99.90;;;;;;4979030;28;20061;-76
2022/09/28 03:14:30;;;;;;;1.67;0.43;;;6.30;99.90;;;;;;4978484;28;20149;-77
2022/09/28 03:16:56;;;;;;;2.75;1.45;;;6.20;99.90;;;;;;4996014;28;20067;-76
2022/09/28 03:19:27;;;;;;;0.55;0.50;;;6.20;99.90;;;;;;4978510;28;20505;-77
2022/09/28 03:21:54;;;;;;;2.15;0.65;;;6.10;99.90;;;;;;4995693;28;20027;-76
2022/09/28 03:24:20;;;;;;;1.55;0.75;;;6.10;99.90;;;;;;4995722;28;20022;-77
2022/09/28 03:26:45;;;;;;;0.80;0.63;;;6.00;99.90;;;;;;4978201;28;20386;-76
2022/09/28 03:29:11;;;;;;;3.03;0.77;;;6.00;99.90;;;;;;4978278;28;20038;-76
2022/09/28 03:31:37;;;;;;;4.80;0.98;;;6.00;99.90;;;;;;4995669;28;20085;-77
2022/09/28 03:34:02;;;;;;;7.03;0.63;;;5.90;99.90;;;;;;4994570;28;20030;-76
2022/09/28 03:36:28;;;;;;;2.05;0.60;;;5.90;99.90;;;;;;4994976;28;20018;-76
2022/09/28 03:38:55;;;;;;;7.60;1.10;;;5.90;99.90;;;;;;4977662;28;20497;-77
2022/09/28 03:41:21;;;;;;;1.65;0.95;;;5.90;99.90;;;;;;4995438;28;20371;-76
2022/09/28 03:43:46;;;;;;;0.60;0.60;;;5.90;99.90;;;;;;4977790;28;20062;-76
2022/09/28 03:46:12;;;;;;;1.02;0.60;;;6.00;99.90;;;;;;4999492;28;20076;-77
2022/09/28 03:48:39;;;;;;;1.35;1.10;;;5.90;99.90;;;;;;5000156;28;20061;-78
2022/09/28 03:51:08;;;;;;;1.65;0.70;;;6.00;99.90;;;;;;5000432;28;20026;-77
2022/09/28 03:53:34;;;;;;;5.57;0.73;;;6.00;99.90;;;;;;4983563;28;20447;-77
2022/09/28 03:56:04;;;;;;;2.25;0.70;;;6.00;99.90;;;;;;4999220;28;20058;-77
2022/09/28 03:58:30;;;;;;;1.80;0.93;;;6.00;99.90;;;;;;4998504;28;20049;-77
2022/09/28 04:01:02;;;;;;;4.40;1.05;;;6.10;99.90;;;;;;4981630;28;20022;-76
2022/09/28 04:03:27;;;;;;;1.45;0.70;;;6.10;99.90;;;;;;4982255;28;20054;-77
2022/09/28 04:05:53;;;;;;;8.52;0.93;;;6.10;99.90;;;;;;4981671;28;20026;-79
2022/09/28 04:08:19;;;;;;;1.25;0.77;;;6.10;99.90;;;;;;4984600;28;20034;-77
2022/09/28 04:10:46;;;;;;;1.08;0.75;;;6.20;99.90;;;;;;4997759;28;20022;-79
2022/09/28 04:13:11;;;;;;;7.53;0.98;;;6.10;99.90;;;;;;4981927;28;20030;-77
2022/09/28 04:15:37;;;;;;;1.83;0.75;;;6.10;99.90;;;;;;4997665;28;20073;-74
2022/09/28 04:18:08;;;;;;;4.05;1.02;;;6.10;99.90;;;;;;4996712;28;20030;-75
2022/09/28 04:20:33;;;;;;;2.13;1.30;;;6.10;99.90;;;;;;4978094;28;20062;-75
2022/09/28 04:22:59;;;;;;;2.25;0.80;;;6.10;99.90;;;;;;4996724;28;20037;-75
2022/09/28 04:25:25;;;;;;;3.63;1.33;;;6.00;99.90;;;;;;4995652;28;20132;-75
2022/09/28 04:30:35;;;;;;;1.45;1.10;;;6.10;99.90;;;;;;4995530;28;20517;-75
2022/09/28 04:33:00;;;;;;;4.55;1.40;;;6.10;99.90;;;;;;4998225;28;20026;-75
2022/09/28 04:35:26;;;;;;;2.95;1.60;;;6.10;99.90;;;;;;4981279;28;20034;-75
2022/09/28 04:37:52;;;;;;;5.20;1.38;;;6.20;99.90;;;;;;4998812;28;20101;-75
2022/09/28 04:40:17;;;;;;;4.80;1.63;;;6.20;99.90;;;;;;4981673;28;20022;-76
2022/09/28 04:42:43;;;;;;;1.35;0.90;;;6.20;99.90;;;;;;4982458;28;20038;-76
2022/09/28 04:45:09;;;;;;;2.53;1.05;;;6.30;99.90;;;;;;5000891;28;20054;-75
2022/09/28 04:47:34;;;;;;;4.50;1.90;;;6.30;99.90;;;;;;4982162;28;20026;-76
2022/09/28 04:50:00;;;;;;;6.93;1.42;;;6.30;99.90;;;;;;4999054;28;20042;-75
2022/09/28 04:52:26;;;;;;;3.42;1.05;;;6.30;99.90;;;;;;4981429;28;20022;-75
2022/09/28 04:54:51;;;;;;;1.13;1.00;;;6.30;99.90;;;;;;4997257;28;20042;-75
2022/09/28 04:57:17;;;;;;;2.33;1.30;;;6.40;99.90;;;;;;4998324;28;20022;-76
2022/09/28 04:59:43;;;;;;;4.63;1.02;;;6.40;99.90;;;;;;4980424;28;20538;-76
2022/09/28 05:02:10;;;;;;;2.47;1.30;;;6.50;99.90;;;;;;5005831;28;20101;-76
2022/09/28 05:04:36;;;;;;;5.82;1.55;;;6.50;99.90;;;;;;4999987;28;20025;-76
2022/09/28 05:07:02;;;;;;;2.10;0.88;;;6.50;99.90;;;;;;5017292;28;20462;-78
2022/09/28 05:09:32;;;;;;;4.38;1.30;;;6.50;99.90;;;;;;5000954;28;20413;-76
2022/09/28 05:11:58;;;;;;;3.55;1.40;;;6.60;99.90;;;;;;5000991;28;20030;-75
2022/09/28 05:14:23;;;;;;;1.90;1.13;;;6.60;99.90;;;;;;4998456;28;20497;-76
2022/09/28 05:16:49;;;;;;;6.72;1.17;;;6.70;99.90;;;;;;5016400;28;20030;-75
2022/09/28 05:19:15;;;;;;;3.00;1.00;;;6.70;99.90;;;;;;5017366;28;20040;-75
2022/09/28 05:21:49;;;;;;;5.05;1.92;;;6.70;99.90;;;;;;4999519;28;20030;-75
2022/09/28 05:24:14;;;;;;;3.60;1.52;;;6.60;99.90;;;;;;5017497;28;20109;-75
2022/09/28 05:26:40;;;;;;;7.35;1.60;;;6.70;99.90;;;;;;4999292;28;20121;-76
2022/09/28 05:29:05;;;;;;;3.80;1.92;;;6.70;99.90;;;;;;4999271;28;20034;-75
2022/09/28 05:31:31;;;;;;;3.38;1.77;;;6.70;99.90;;;;;;5016847;28;20046;-76
2022/09/28 05:33:57;;;;;;;6.95;3.10;;;6.80;99.90;;;;;;5017304;28;20037;-76
2022/09/28 05:36:25;;;;;;;4.50;2.40;;;6.80;99.90;;;;;;5016830;28;20482;-76
2022/09/28 05:38:51;;;;;;;8.23;2.75;;;6.80;99.90;;;;;;4999328;28;20474;-76
2022/09/28 05:41:17;;;;;;;6.03;2.17;;;6.80;99.90;;;;;;4998718;28;20073;-76
2022/09/28 05:43:43;;;;;;;3.53;2.10;;;6.90;99.90;;;;;;4998193;28;20087;-76
2022/09/28 05:46:08;;;;;;;3.35;1.85;;;6.90;99.90;;;;;;5016527;28;20060;-75
2022/09/28 05:48:34;;;;;;;4.25;1.70;;;6.90;99.90;;;;;;4998915;28;20085;-76
2022/09/28 05:51:00;;;;;;;6.55;1.95;;;6.90;99.90;;;;;;4998881;28;20478;-76
2022/09/28 05:53:26;;;;;;;1.67;1.02;;;6.90;99.90;;;;;;4998787;28;20034;-76
2022/09/28 05:55:51;;;;;;;3.38;1.75;;;6.90;99.90;;;;;;5016266;28;20034;-76
2022/09/28 05:58:17;;;;;;;3.53;1.83;;;6.90;99.90;;;;;;4998930;28;20041;-75
2022/09/28 06:00:43;;;;;;;5.30;1.67;;;7.00;99.90;;;;;;5016282;28;20033;-76
2022/09/28 06:03:13;;;;;;;6.45;1.60;;;7.00;99.90;;;;;;4998739;28;20457;-75
2022/09/28 06:05:39;;;;;;;2.42;1.13;;;7.20;99.90;;;;;;4999031;28;20092;-76
2022/09/28 06:08:07;;;;;;;2.17;0.90;;;7.60;99.90;;;;;;4998075;28;20022;-77
2022/09/28 06:10:33;;;;;;;4.03;0.95;;;8.00;99.90;;;;;;4998341;28;20030;-76
2022/09/28 06:12:59;;;;;;;3.88;1.00;;;8.40;99.90;;;;;;4998367;28;20120;-77
2022/09/28 06:15:27;;;;;;;3.45;0.80;;;8.80;99.90;;;;;;5015880;28;20026;-76
2022/09/28 06:17:59;;;;;;;1.23;0.80;;;9.20;99.90;;;;;;5015780;28;20120;-77
2022/09/28 06:20:27;;;;;;;8.65;0.75;;;9.60;99.90;;;;;;5015743;28;20405;-77
2022/09/28 06:22:54;;;;;;;3.63;0.73;;;9.90;99.90;;;;;;4998119;28;20033;-76
2022/09/28 06:25:21;;;;;;;4.57;0.80;;;10.20;99.90;;;;;;4998075;28;20028;-77
2022/09/28 06:27:54;;;;;;;3.80;0.57;;;10.30;99.90;;;;;;4998091;28;20481;-76
2022/09/28 06:30:20;;;;;;;12.07;3.17;;;10.50;99.90;;;;;;4997822;28;20033;-77
2022/09/28 06:32:45;;;;;;;1.60;0.50;;;10.60;99.90;;;;;;5015705;28;20029;-77
2022/09/28 06:35:14;;;;;;;1.65;0.90;;;10.70;99.90;;;;;;5015474;28;20121;-77
2022/09/28 06:37:43;;;;;;;2.05;0.88;;;10.80;99.90;;;;;;4997917;28;20037;-77
2022/09/28 06:40:09;;;;;;;3.85;1.10;;;10.90;99.90;;;;;;5015431;28;20382;-76
2022/09/28 06:42:34;;;;;;;6.07;1.20;;;10.90;99.90;;;;;;5015206;28;20022;-76
2022/09/28 06:45:00;;;;;;;15.35;6.55;;;11.00;99.90;;;;;;4997808;28;20462;-76
2022/09/28 06:47:25;;;;;;;9.60;3.10;;;11.20;99.90;;;;;;5015330;28;20030;-77
2022/09/28 06:49:54;;;;;;;10.15;3.45;;;11.30;99.90;;;;;;4997648;28;20030;-77
2022/09/28 06:52:20;;;;;;;10.77;3.17;;;11.60;99.90;;;;;;4997767;28;20137;-76
2022/09/28 06:54:45;;;;;;;7.53;2.63;;;11.90;99.90;;;;;;4996543;28;20784;-77
2022/09/28 06:57:11;;;;;;;4.55;1.52;;;12.30;99.90;;;;;;5015241;28;20026;-76
2022/09/28 06:59:37;;;;;;;2.45;1.65;;;12.70;99.90;;;;;;5015042;28;20026;-77
2022/09/28 07:02:03;;;;;;;2.78;0.82;;;13.10;99.90;;;;;;4997720;28;20532;-77
2022/09/28 07:04:30;;;;;;;3.38;1.05;;;13.40;99.90;;;;;;5014957;28;20026;-77
2022/09/28 07:06:56;;;;;;;5.50;0.90;;;13.70;99.90;;;;;;5014834;28;20080;-77
2022/09/28 07:09:21;;;;;;;1.73;0.63;;;14.20;99.90;;;;;;4997224;28;20030;-77
2022/09/28 07:11:47;;;;;;;2.92;0.80;;;14.50;99.90;;;;;;4997327;28;20026;-77
2022/09/28 07:14:13;;;;;;;1.75;0.98;;;14.80;99.90;;;;;;4997262;28;20491;-76
2022/09/28 07:16:38;;;;;;;3.35;0.73;;;15.10;99.90;;;;;;5015023;28;20476;-77
2022/09/28 07:19:05;;;;;;;1.52;0.45;;;15.40;99.90;;;;;;5014775;28;20034;-76
2022/09/28 07:21:30;;;;;;;0.90;0.57;;;15.80;99.60;;;;;;4997207;28;20033;-76
2022/09/28 07:23:56;;;;;;;2.30;0.60;;;16.40;98.20;;;;;;5014936;28;20030;-77
2022/09/28 07:26:22;;;;;;;1.08;0.22;;;16.80;96.00;;;;;;4997044;28;20081;-76
2022/09/28 07:28:47;;;;;;;0.93;0.30;;;17.10;93.50;;;;;;5014612;28;20120;-76
2022/09/28 07:31:13;;;;;;;0.57;0.30;;;17.10;93.40;;;;;;4996766;28;20486;-76
2022/09/28 07:33:39;;;;;;;0.77;0.32;;;17.30;92.20;;;;;;5014546;28;20029;-77
2022/09/28 07:36:06;;;;;;;1.67;0.32;;;17.40;91.50;;;;;;5014461;28;20104;-76
2022/09/28 07:38:34;;;;;;;1.52;0.43;;;17.60;91.00;;;;;;4996766;28;20524;-76
2022/09/28 07:41:13;;;;;;;0.20;0.13;;;17.80;90.70;;;;;;4997017;28;20034;-76
2022/09/28 07:43:40;;;;;;;4.10;0.40;;;18.00;90.50;;;;;;4997231;28;20124;-76
2022/09/28 07:46:13;;;;;;;3.60;0.40;;;18.00;89.10;;;;;;4996663;28;20037;-76
2022/09/28 07:48:40;;;;;;;2.25;0.43;;;17.80;90.00;;;;;;5014263;28;20061;-76
2022/09/28 07:51:06;;;;;;;2.20;0.60;;;17.70;90.10;;;;;;5014137;28;20028;-76
2022/09/28 07:53:32;;;;;;;0.98;0.47;;;17.80;90.00;;;;;;5014328;28;20488;-78
2022/09/28 07:56:02;;;;;;;2.33;0.57;;;17.80;88.90;;;;;;4996632;28;20022;-77
2022/09/28 07:58:29;;;;;;;3.25;0.60;;;17.60;90.20;;;;;;4997019;28;20034;-78
2022/09/28 08:00:55;;;;;;;0.80;0.60;;;17.70;90.10;;;;;;4996595;28;20462;-77
2022/09/28 08:03:21;;;;;;;4.28;0.70;;;17.50;90.50;;;;;;4996540;28;20025;-77
2022/09/28 08:05:47;;;;;;;1.05;0.40;;;17.90;90.60;;;;;;5013661;28;20080;-77
2022/09/28 08:08:13;;;;;;;1.17;0.70;;;18.30;89.90;;;;;;4996368;28;20164;-77
2022/09/28 08:10:42;;;;;;;1.10;0.68;;;18.20;88.80;;;;;;4996407;28;20030;-77
2022/09/28 08:13:08;;;;;;;1.50;0.65;;;18.00;87.80;;;;;;4996289;28;20026;-77
2022/09/28 08:15:35;;;;;;;1.98;0.63;;;17.80;90.10;;;;;;5013875;28;20034;-77
2022/09/28 08:18:02;;;;;;;0.68;0.50;;;17.80;89.60;;;;;;5013844;28;20029;-77
2022/09/28 08:23:13;;;;;;;2.22;0.77;;;17.00;91.30;;;;;;5013588;28;20044;-77
2022/09/28 08:25:39;;;;;;;1.95;0.50;;;16.30;92.20;;;;;;5013554;28;20026;-76
2022/09/28 08:28:07;;;;;;;2.47;0.60;;;16.20;93.20;;;;;;4995656;28;20148;-76
2022/09/28 08:30:33;;;;;;;3.13;0.60;;;16.40;92.80;;;;;;5013641;28;20477;-77
2022/09/28 08:32:59;;;;;;;4.68;1.00;;;17.10;91.80;;;;;;4996326;28;20030;-76
2022/09/28 08:35:25;;;;;;;0.93;0.70;;;17.60;90.80;;;;;;5014260;28;20030;-77
2022/09/28 08:37:53;;;;;;;2.50;0.52;;;18.20;89.50;;;;;;4996331;28;20022;-77
2022/09/28 08:40:24;;;;;;;2.15;0.60;;;18.70;87.00;;;;;;5013761;28;20026;-77
2022/09/28 08:42:54;;;;;;;0.85;0.63;;;18.50;85.90;;;;;;5013980;28;20017;-77
2022/09/28 08:45:27;;;;;;;1.63;0.70;;;18.10;86.40;;;;;;5014202;28;20073;-77
2022/09/28 08:51:18;;;;;;;1.85;0.60;;;18.80;87.90;;;;;;5013746;28;20037;-77
2022/09/28 08:54:23;;;;;;;1.95;0.77;;;19.30;83.80;;;;;;4996509;28;20125;-76
2022/09/28 08:56:56;;;;;;;4.18;0.88;;;19.10;82.90;;;;;;4978592;28;20030;-76
2022/09/28 08:59:30;;;;;;;4.20;0.80;;;19.30;83.30;;;;;;5013311;28;20077;-76
2022/09/28 09:02:02;;;;;;;1.08;0.90;;;20.30;82.10;;;;;;5013238;28;20104;-76
2022/09/28 09:04:29;;;;;;;0.95;0.90;;;20.40;78.60;;;;;;5013564;28;20374;-76
2022/09/28 09:07:19;;;;;;;2.17;0.85;;;19.70;80.40;;;;;;4995798;28;20447;-76
2022/09/28 09:10:10;;;;;;;1.52;0.50;;;19.60;80.00;;;;;;4995932;28;20034;-76
2022/09/28 09:13:00;;;;;;;2.13;0.38;;;19.50;80.40;;;;;;4996468;28;20116;-77
2022/09/28 09:15:47;;;;;;;0.52;0.52;;;18.90;80.30;;;;;;4995670;28;20030;-76
2022/09/28 09:18:36;;;;;;;5.85;0.47;;;18.90;83.30;;;;;;5014271;28;20105;-76
2022/09/28 09:21:32;;;;;;;2.75;0.95;;;19.10;83.60;;;;;;4999659;28;20022;-76
2022/09/28 09:24:13;;;;;;;0.60;0.60;;;19.10;85.60;;;;;;4970889;28;20072;-76
2022/09/28 09:26:39;;;;;;;3.55;0.80;;;18.90;87.00;;;;;;4999494;28;20069;-76
2022/09/28 09:29:14;;;;;;;4.72;1.30;;;19.00;88.20;;;;;;5016614;28;20107;-76
2022/09/28 09:31:49;;;;;;;2.22;0.77;;;19.30;87.70;;;;;;5016407;28;20050;-76
2022/09/28 09:35:00;;;;;;;0.70;0.70;;;18.70;87.20;;;;;;4999105;28;20029;-76
2022/09/28 09:37:25;;;;;;;4.35;0.73;;;18.00;90.80;;;;;;4974247;28;20470;-76
2022/09/28 09:40:33;;;;;;;2.72;0.57;;;18.60;90.40;;;;;;5016272;28;20041;-77
2022/09/28 09:43:01;;;;;;;2.85;1.25;;;19.30;88.20;;;;;;5016522;28;20033;-77
2022/09/28 09:46:03;;;;;;;0.73;0.50;;;20.00;84.80;;;;;;4998940;28;20107;-77
2022/09/28 09:48:58;;;;;;;0.75;0.68;;;19.40;82.00;;;;;;4998946;28;20342;-77
2022/09/28 09:52:17;;;;;;;1.05;0.63;;;19.30;84.90;;;;;;4996810;28;20493;-77
2022/09/28 09:55:09;;;;;;;1.80;0.30;;;19.10;84.40;;;;;;4962091;28;20117;-77
2022/09/28 09:57:41;;;;;;;3.88;0.63;;;19.40;85.40;;;;;;4993234;28;20088;-77
2022/09/28 10:00:13;;;;;;;2.65;0.47;;;20.30;84.90;;;;;;4998539;28;20026;-78
2022/09/28 10:02:39;;;;;;;1.58;0.60;;;21.40;81.60;;;;;;4998727;28;20026;-78
2022/09/28 10:05:10;;;;;;;0.20;0.20;;;22.20;78.80;;;;;;5016234;28;20061;-78
2022/09/28 10:08:08;;;;;;;0.90;0.47;;;23.00;72.50;;;;;;5016341;28;20064;-78
2022/09/28 10:10:48;;;;;;;2.75;0.30;;;23.50;69.50;;;;;;4978949;28;20421;-78
2022/09/28 10:13:14;;;;;;;1.50;0.52;;;24.20;69.20;;;;;;5016012;28;20109;-78
2022/09/28 10:15:40;;;;;;;0.40;0.40;;;24.60;66.00;;;;;;4998410;28;20113;-78
2022/09/28 10:18:11;;;;;;;1.88;0.40;;;24.80;65.40;;;;;;4998169;28;20489;-78
2022/09/28 10:20:38;;;;;;;0.80;0.40;;;24.60;64.10;;;;;;4998204;28;20033;-78
2022/09/28 10:23:11;;;;;;;1.40;0.50;;;24.80;63.40;;;;;;4998194;28;20026;-78
2022/09/28 10:25:37;;;;;;;0.55;0.30;;;24.50;62.10;;;;;;5015543;28;20378;-78
2022/09/28 10:28:06;;;;;;;1.58;0.40;;;24.30;63.60;;;;;;4998028;28;20026;-78
2022/09/28 10:30:41;;;;;;;1.05;0.30;;;24.60;62.10;;;;;;5015038;28;20080;-78
2022/09/28 10:33:28;;;;;;;1.67;1.17;;;24.60;62.40;;;;;;4997781;28;20107;-78
2022/09/28 10:35:54;;;;;;;1.05;0.40;;;24.30;61.80;;;;;;4997928;28;20073;-78
2022/09/28 10:38:21;;;;;;;3.90;0.60;;;24.10;62.60;;;;;;4997947;28;20037;-78
2022/09/28 10:40:53;;;;;;;2.35;0.65;;;23.70;63.30;;;;;;4997796;28;20026;-77
2022/09/28 10:43:23;;;;;;;1.15;0.60;;;23.20;64.10;;;;;;4997892;28;20086;-78
2022/09/28 10:46:22;;;;;;;1.67;0.22;;;23.00;65.60;;;;;;4997538;28;20049;-78
2022/09/28 10:48:50;;;;;;;1.95;0.50;;;22.20;66.60;;;;;;4995647;28;20049;-78
2022/09/28 10:51:16;;;;;;;1.55;0.35;;;22.30;67.50;;;;;;4998118;28;20041;-78
2022/09/28 10:53:59;;;;;;;0.95;0.30;;;22.20;67.80;;;;;;5014878;28;20026;-78
2022/09/28 10:56:28;;;;;;;3.30;0.30;;;22.30;67.60;;;;;;4997893;28;20030;-78
2022/09/28 10:58:54;;;;;;;0.73;0.20;;;22.50;66.30;;;;;;4997428;28;20030;-78
2022/09/28 11:01:31;;;;;;;2.58;0.40;;;22.10;66.90;;;;;;5014898;28;20026;-78
2022/09/28 11:04:01;;;;;;;1.55;0.40;;;22.20;68.00;;;;;;5014713;28;20470;-79
2022/09/28 11:06:30;;;;;;;0.40;0.20;;;22.10;67.80;;;;;;4997144;28;20034;-78
2022/09/28 11:09:00;;;;;;;3.78;0.47;;;22.10;67.50;;;;;;4997250;28;20540;-78
2022/09/28 11:11:28;;;;;;;2.55;0.38;;;21.90;68.10;;;;;;5014542;28;20064;-78
2022/09/28 11:13:56;;;;;;;5.20;0.40;;;21.70;68.60;;;;;;4997211;28;20099;-78
2022/09/28 11:16:33;;;;;;;2.38;0.68;;;21.50;69.10;;;;;;4997893;28;20025;-78
2022/09/28 11:19:05;;;;;;;1.27;0.25;;;21.30;69.60;;;;;;4997146;28;20128;-78
2022/09/28 11:21:41;;;;;;;0.40;0.40;;;21.10;69.20;;;;;;4997228;28;20112;-78
2022/09/28 11:24:21;;;;;;;0.63;0.20;;;21.00;70.20;;;;;;5014665;28;20029;-78
2022/09/28 11:26:53;;;;;;;1.10;0.40;;;20.80;71.20;;;;;;4996920;28;20104;-78
2022/09/28 11:29:30;;;;;;;1.98;0.47;;;20.80;70.40;;;;;;5014554;28;20030;-78
2022/09/28 11:32:04;;;;;;;1.02;0.25;;;20.70;69.90;;;;;;4996941;28;20129;-78
2022/09/28 11:34:36;;;;;;;3.70;0.52;;;20.80;69.60;;;;;;5014470;28;20437;-78
2022/09/28 11:37:20;;;;;;;1.17;0.30;;;20.90;69.10;;;;;;4996853;28;20025;-78
2022/09/28 11:40:12;;;;;;;0.20;0.20;;;20.60;67.80;;;;;;4997063;28;20466;-78
2022/09/28 11:42:56;;;;;;;0.93;0.10;;;20.20;69.90;;;;;;5014273;28;20026;-78
2022/09/28 11:45:37;;;;;;;0.05;0.05;;;20.30;70.40;;;;;;4996847;28;20021;-78
2022/09/28 11:48:08;;;;;;;2.03;0.20;;;20.70;69.60;;;;;;5014330;28;20026;-78
2022/09/28 11:50:54;;;;;;;0.70;0.13;;;21.00;68.90;;;;;;4996746;28;20129;-78
2022/09/28 11:53:34;;;;;;;0.20;0.15;;;20.90;69.40;;;;;;5014289;28;20073;-78
2022/09/28 11:56:31;;;;;;;3.17;0.35;;;21.10;69.30;;;;;;4996574;28;20026;-78
2022/09/28 11:59:09;;;;;;;2.45;0.30;;;21.40;69.30;;;;;;5014270;28;20048;-78
2022/09/28 12:01:55;;;;;;;0.22;0.22;;;21.20;69.40;;;;;;4996803;28;20022;-78
2022/09/28 12:04:43;;;;;;;1.27;0.30;;;21.00;69.80;;;;;;5014022;28;20026;-79
2022/09/28 12:07:15;;;;;;;0.50;0.30;;;21.00;68.80;;;;;;4996697;28;20029;-78
2022/09/28 12:10:18;;;;;;;0.15;0.10;;;21.90;69.40;;;;;;4997474;28;20037;-79
2022/09/28 12:13:02;;;;;;;0.20;0.15;;;22.70;66.20;;;;;;4964144;28;20116;-79
2022/09/28 12:15:44;;;;;;;2.20;0.20;;;23.00;64.00;;;;;;4997119;28;20462;-79
2022/09/28 12:18:35;;;;;;;1.00;0.25;;;23.20;64.10;;;;;;5014270;28;20411;-79
2022/09/28 12:21:00;;;;;;;0.52;0.20;;;22.20;63.90;;;;;;4997045;28;20409;-78
2022/09/28 12:23:34;;;;;;;0.10;0.10;;;22.30;65.20;;;;;;4996282;28;20022;-78
2022/09/28 12:26:09;;;;;;;1.83;0.30;;;22.40;64.00;;;;;;5014218;28;20073;-78
2022/09/28 12:28:44;;;;;;;1.00;0.30;;;22.60;64.00;;;;;;5013533;28;20034;-78
2022/09/28 12:31:14;;;;;;;0.40;0.10;;;22.70;63.20;;;;;;5013523;28;20133;-78
2022/09/28 12:33:46;;;;;;;0.63;0.40;;;22.60;64.60;;;;;;5013839;28;20355;-78
2022/09/28 12:36:50;;;;;;;2.50;0.32;;;22.80;66.50;;;;;;5013915;28;20022;-78
2022/09/28 12:39:34;;;;;;;1.63;0.40;;;22.80;67.70;;;;;;4984235;28;20482;-78
2022/09/28 12:42:20;;;;;;;1.70;0.38;;;22.20;66.40;;;;;;5013428;28;20100;-79
2022/09/28 12:44:58;;;;;;;1.85;0.20;;;21.70;69.10;;;;;;4946980;28;20038;-79
2022/09/28 12:47:45;;;;;;;0.90;0.30;;;21.50;70.50;;;;;;4995773;28;20038;-80
2022/09/28 12:50:41;;;;;;;2.20;0.20;;;21.40;71.80;;;;;;5013627;28;20113;-79
2022/09/28 12:53:18;;;;;;;1.48;0.20;;;22.80;69.10;;;;;;4996601;28;20054;-80
2022/09/28 12:56:10;;;;;;;0.50;0.30;;;23.40;66.30;;;;;;5017590;28;20030;-81
2022/09/28 12:58:59;;;;;;;1.45;0.20;;;23.50;63.00;;;;;;5017472;28;20112;-79
2022/09/28 13:01:28;;;;;;;1.75;0.30;;;24.70;63.00;;;;;;4999951;28;20045;-79
2022/09/28 13:03:59;;;;;;;0.10;0.10;;;26.30;58.80;;;;;;4999818;28;20079;-79
2022/09/28 13:06:52;;;;;;;0.65;0.30;;;26.40;53.60;;;;;;5017346;28;20037;-79
2022/09/28 13:09:25;;;;;;;0.50;0.20;;;25.20;53.30;;;;;;4999588;28;20030;-78
2022/09/28 13:12:28;;;;;;;0.28;0.15;;;25.10;55.20;;;;;;4999464;28;20471;-79
2022/09/28 13:15:22;;;;;;;0.60;0.30;;;25.00;54.10;;;;;;4999582;28;20476;-80
2022/09/28 13:17:52;;;;;;;0.30;0.20;;;24.60;53.70;;;;;;4999775;28;20033;-80
2022/09/28 13:20:47;;;;;;;2.25;0.30;;;24.10;55.40;;;;;;5017116;28;20026;-80
2022/09/28 13:23:26;;;;;;;0.47;0.20;;;24.00;55.00;;;;;;4999793;28;20033;-82
2022/09/28 13:25:54;;;;;;;;;;;24.40;53.00;;;;;;4999473;28;20022;-81
2022/09/28 13:28:21;;;;;;;0.43;0.20;;;24.20;51.70;;;;;;4999082;28;19905;-80
2022/09/28 13:30:49;;;;;;;2.35;0.22;;;23.60;53.90;;;;;;4999048;28;20068;-79
2022/09/28 13:33:37;;;;;;;0.77;0.20;;;23.30;53.30;;;;;;4999495;28;20053;-81